sensor_id;sensor_type;location;lat;lon;timestamp;pressure;altitude;pressure_sealevel;temperature
67501;BMP180;54349;52.528;19.760;2023-04-01T00:01:22;98654.40;;;23.78
67501;BMP180;54349;52.528;19.760;2023-04-01T00:03:51;98653.60;;;23.78
67501;BMP180;54349;52.528;19.760;2023-04-01T00:06:23;98651.00;;;23.80
67501;BMP180;54349;52.528;19.760;2023-04-01T00:08:54;98647.60;;;23.80
67501;BMP180;54349;52.528;19.760;2023-04-01T00:11:22;98648.20;;;23.80
67501;BMP180;54349;52.528;19.760;2023-04-01T00:13:51;98646.60;;;23.80
67501;BMP180;54349;52.528;19.760;2023-04-01T00:16:19;98642.60;;;23.80
67501;BMP180;54349;52.528;19.760;2023-04-01T00:18:50;98643.60;;;23.80
67501;BMP180;54349;52.528;19.760;2023-04-01T00:21:20;98642.60;;;23.80
67501;BMP180;54349;52.528;19.760;2023-04-01T00:23:50;98642.80;;;23.80
67501;BMP180;54349;52.528;19.760;2023-04-01T00:26:20;98643.40;;;23.80
67501;BMP180;54349;52.528;19.760;2023-04-01T00:28:50;98645.60;;;23.86
67501;BMP180;54349;52.528;19.760;2023-04-01T00:31:19;98647.00;;;23.86
67501;BMP180;54349;52.528;19.760;2023-04-01T00:33:49;98641.40;;;23.88
67501;BMP180;54349;52.528;19.760;2023-04-01T00:36:20;98640.20;;;23.90
67501;BMP180;54349;52.528;19.760;2023-04-01T00:38:50;98637.00;;;23.90
67501;BMP180;54349;52.528;19.760;2023-04-01T00:41:20;98639.00;;;23.90
67501;BMP180;54349;52.528;19.760;2023-04-01T00:43:50;98635.40;;;23.90
67501;BMP180;54349;52.528;19.760;2023-04-01T00:46:20;98636.80;;;23.90
67501;BMP180;54349;52.528;19.760;2023-04-01T00:48:53;98632.20;;;23.90
67501;BMP180;54349;52.528;19.760;2023-04-01T00:51:28;98632.40;;;23.90
67501;BMP180;54349;52.528;19.760;2023-04-01T00:54:00;98632.40;;;23.90
67501;BMP180;54349;52.528;19.760;2023-04-01T00:56:37;98632.80;;;23.90
67501;BMP180;54349;52.528;19.760;2023-04-01T00:59:14;98627.60;;;23.90
67501;BMP180;54349;52.528;19.760;2023-04-01T01:01:44;98628.60;;;23.90
67501;BMP180;54349;52.528;19.760;2023-04-01T01:04:29;98629.00;;;23.90
67501;BMP180;54349;52.528;19.760;2023-04-01T01:10:09;98628.40;;;23.90
67501;BMP180;54349;52.528;19.760;2023-04-01T01:12:54;98625.40;;;23.90
67501;BMP180;54349;52.528;19.760;2023-04-01T01:15:32;98628.20;;;23.90
67501;BMP180;54349;52.528;19.760;2023-04-01T01:24:22;98629.80;;;23.82
67501;BMP180;54349;52.528;19.760;2023-04-01T01:27:06;98624.80;;;23.80
67501;BMP180;54349;52.528;19.760;2023-04-01T01:38:17;98626.80;;;23.80
67501;BMP180;54349;52.528;19.760;2023-04-01T01:40:55;98626.40;;;23.80
67501;BMP180;54349;52.528;19.760;2023-04-01T01:43:32;98627.00;;;23.80
67501;BMP180;54349;52.528;19.760;2023-04-01T01:46:10;98628.00;;;23.78
67501;BMP180;54349;52.528;19.760;2023-04-01T01:48:43;98621.40;;;23.74
67501;BMP180;54349;52.528;19.760;2023-04-01T01:51:12;98620.20;;;23.70
67501;BMP180;54349;52.528;19.760;2023-04-01T01:53:41;98619.60;;;23.70
67501;BMP180;54349;52.528;19.760;2023-04-01T01:56:11;98619.20;;;23.70
67501;BMP180;54349;52.528;19.760;2023-04-01T01:58:47;98615.40;;;23.70
67501;BMP180;54349;52.528;19.760;2023-04-01T02:01:26;98614.00;;;23.70
67501;BMP180;54349;52.528;19.760;2023-04-01T02:03:59;98609.00;;;23.70
67501;BMP180;54349;52.528;19.760;2023-04-01T02:06:33;98602.60;;;23.70
67501;BMP180;54349;52.528;19.760;2023-04-01T02:09:07;98604.40;;;23.70
67501;BMP180;54349;52.528;19.760;2023-04-01T02:15:04;98600.60;;;23.62
67501;BMP180;54349;52.528;19.760;2023-04-01T02:17:31;98600.80;;;23.60
67501;BMP180;54349;52.528;19.760;2023-04-01T02:20:19;98599.80;;;23.60
67501;BMP180;54349;52.528;19.760;2023-04-01T02:22:54;98598.80;;;23.60
67501;BMP180;54349;52.528;19.760;2023-04-01T02:25:28;98597.80;;;23.60
67501;BMP180;54349;52.528;19.760;2023-04-01T02:27:59;98599.60;;;23.60
67501;BMP180;54349;52.528;19.760;2023-04-01T02:30:31;98596.60;;;23.60
67501;BMP180;54349;52.528;19.760;2023-04-01T02:33:04;98592.40;;;23.58
67501;BMP180;54349;52.528;19.760;2023-04-01T02:35:37;98591.60;;;23.56
67501;BMP180;54349;52.528;19.760;2023-04-01T02:38:09;98593.80;;;23.50
67501;BMP180;54349;52.528;19.760;2023-04-01T02:40:50;98593.00;;;23.50
67501;BMP180;54349;52.528;19.760;2023-04-01T02:43:19;98588.00;;;23.50
67501;BMP180;54349;52.528;19.760;2023-04-01T02:45:48;98591.40;;;23.50
67501;BMP180;54349;52.528;19.760;2023-04-01T02:48:18;98590.60;;;23.50
67501;BMP180;54349;52.528;19.760;2023-04-01T02:50:47;98589.60;;;23.50
67501;BMP180;54349;52.528;19.760;2023-04-01T02:53:16;98595.40;;;23.50
67501;BMP180;54349;52.528;19.760;2023-04-01T02:55:45;98592.20;;;23.50
67501;BMP180;54349;52.528;19.760;2023-04-01T02:58:13;98592.40;;;23.44
67501;BMP180;54349;52.528;19.760;2023-04-01T03:00:42;98590.00;;;23.40
67501;BMP180;54349;52.528;19.760;2023-04-01T03:03:11;98593.20;;;23.40
67501;BMP180;54349;52.528;19.760;2023-04-01T03:05:42;98591.40;;;23.40
67501;BMP180;54349;52.528;19.760;2023-04-01T03:08:11;98593.60;;;23.40
67501;BMP180;54349;52.528;19.760;2023-04-01T03:10:39;98593.40;;;23.30
67501;BMP180;54349;52.528;19.760;2023-04-01T03:13:08;98597.20;;;23.30
67501;BMP180;54349;52.528;19.760;2023-04-01T03:15:37;98595.40;;;23.30
67501;BMP180;54349;52.528;19.760;2023-04-01T03:18:05;98595.60;;;23.30
67501;BMP180;54349;52.528;19.760;2023-04-01T03:20:34;98596.80;;;23.30
67501;BMP180;54349;52.528;19.760;2023-04-01T03:23:02;98601.60;;;23.30
67501;BMP180;54349;52.528;19.760;2023-04-01T03:25:31;98596.60;;;23.24
67501;BMP180;54349;52.528;19.760;2023-04-01T03:28:00;98595.40;;;23.22
67501;BMP180;54349;52.528;19.760;2023-04-01T03:30:30;98601.40;;;23.20
67501;BMP180;54349;52.528;19.760;2023-04-01T03:32:59;98599.20;;;23.20
67501;BMP180;54349;52.528;19.760;2023-04-01T03:35:32;98600.20;;;23.20
67501;BMP180;54349;52.528;19.760;2023-04-01T03:38:00;98604.60;;;23.20
67501;BMP180;54349;52.528;19.760;2023-04-01T03:40:28;98605.80;;;23.20
67501;BMP180;54349;52.528;19.760;2023-04-01T03:42:57;98608.00;;;23.20
67501;BMP180;54349;52.528;19.760;2023-04-01T03:45:25;98609.60;;;23.20
67501;BMP180;54349;52.528;19.760;2023-04-01T03:47:53;98614.20;;;23.20
67501;BMP180;54349;52.528;19.760;2023-04-01T03:50:22;98614.20;;;23.20
67501;BMP180;54349;52.528;19.760;2023-04-01T03:52:50;98612.80;;;23.20
67501;BMP180;54349;52.528;19.760;2023-04-01T03:55:19;98612.40;;;23.20
67501;BMP180;54349;52.528;19.760;2023-04-01T03:57:48;98617.00;;;23.20
67501;BMP180;54349;52.528;19.760;2023-04-01T04:00:17;98617.20;;;23.20
67501;BMP180;54349;52.528;19.760;2023-04-01T04:02:48;98614.60;;;23.20
67501;BMP180;54349;52.528;19.760;2023-04-01T04:05:20;98621.00;;;23.20
67501;BMP180;54349;52.528;19.760;2023-04-01T04:07:49;98624.80;;;23.14
67501;BMP180;54349;52.528;19.760;2023-04-01T04:10:18;98628.80;;;23.14
67501;BMP180;54349;52.528;19.760;2023-04-01T04:12:49;98629.20;;;23.10
67501;BMP180;54349;52.528;19.760;2023-04-01T04:15:18;98632.60;;;23.10
67501;BMP180;54349;52.528;19.760;2023-04-01T04:17:47;98630.40;;;23.10
67501;BMP180;54349;52.528;19.760;2023-04-01T04:20:16;98634.60;;;23.10
67501;BMP180;54349;52.528;19.760;2023-04-01T04:22:44;98636.00;;;23.10
67501;BMP180;54349;52.528;19.760;2023-04-01T04:25:16;98638.40;;;23.10
67501;BMP180;54349;52.528;19.760;2023-04-01T04:27:49;98640.20;;;23.10
67501;BMP180;54349;52.528;19.760;2023-04-01T04:30:20;98641.80;;;23.10
67501;BMP180;54349;52.528;19.760;2023-04-01T04:32:50;98638.60;;;23.10
67501;BMP180;54349;52.528;19.760;2023-04-01T04:35:19;98639.40;;;23.10
67501;BMP180;54349;52.528;19.760;2023-04-01T04:37:48;98637.80;;;23.10
67501;BMP180;54349;52.528;19.760;2023-04-01T04:40:17;98638.40;;;23.10
67501;BMP180;54349;52.528;19.760;2023-04-01T04:42:45;98640.60;;;23.10
67501;BMP180;54349;52.528;19.760;2023-04-01T04:45:15;98643.40;;;23.10
67501;BMP180;54349;52.528;19.760;2023-04-01T04:47:50;98645.40;;;23.10
67501;BMP180;54349;52.528;19.760;2023-04-01T04:50:19;98647.80;;;23.10
67501;BMP180;54349;52.528;19.760;2023-04-01T04:52:48;98649.80;;;23.10
67501;BMP180;54349;52.528;19.760;2023-04-01T04:55:18;98649.60;;;23.10
67501;BMP180;54349;52.528;19.760;2023-04-01T04:57:54;98649.40;;;23.10
67501;BMP180;54349;52.528;19.760;2023-04-01T05:00:22;98651.60;;;23.10
67501;BMP180;54349;52.528;19.760;2023-04-01T05:02:57;98655.20;;;23.10
67501;BMP180;54349;52.528;19.760;2023-04-01T05:05:26;98655.20;;;23.10
67501;BMP180;54349;52.528;19.760;2023-04-01T05:07:55;98654.20;;;23.10
67501;BMP180;54349;52.528;19.760;2023-04-01T05:10:23;98654.20;;;23.10
67501;BMP180;54349;52.528;19.760;2023-04-01T05:12:51;98653.80;;;23.10
67501;BMP180;54349;52.528;19.760;2023-04-01T05:15:22;98658.20;;;23.10
67501;BMP180;54349;52.528;19.760;2023-04-01T05:17:54;98657.00;;;23.10
67501;BMP180;54349;52.528;19.760;2023-04-01T05:20:25;98660.00;;;23.10
67501;BMP180;54349;52.528;19.760;2023-04-01T05:22:58;98661.00;;;23.10
67501;BMP180;54349;52.528;19.760;2023-04-01T05:25:27;98665.00;;;23.10
67501;BMP180;54349;52.528;19.760;2023-04-01T05:27:55;98661.60;;;23.10
67501;BMP180;54349;52.528;19.760;2023-04-01T05:30:24;98660.60;;;23.10
67501;BMP180;54349;52.528;19.760;2023-04-01T05:33:15;98658.80;;;23.10
67501;BMP180;54349;52.528;19.760;2023-04-01T05:35:44;98660.00;;;23.10
67501;BMP180;54349;52.528;19.760;2023-04-01T05:38:12;98660.60;;;23.08
67501;BMP180;54349;52.528;19.760;2023-04-01T05:40:43;98659.00;;;23.04
67501;BMP180;54349;52.528;19.760;2023-04-01T05:43:12;98659.40;;;23.00
67501;BMP180;54349;52.528;19.760;2023-04-01T05:45:41;98665.60;;;23.00
67501;BMP180;54349;52.528;19.760;2023-04-01T05:48:14;98665.40;;;23.02
67501;BMP180;54349;52.528;19.760;2023-04-01T05:50:44;98659.60;;;23.00
67501;BMP180;54349;52.528;19.760;2023-04-01T05:53:12;98668.00;;;23.02
67501;BMP180;54349;52.528;19.760;2023-04-01T05:55:43;98667.00;;;23.00
67501;BMP180;54349;52.528;19.760;2023-04-01T05:58:11;98668.40;;;23.00
67501;BMP180;54349;52.528;19.760;2023-04-01T06:00:40;98668.80;;;23.00
67501;BMP180;54349;52.528;19.760;2023-04-01T06:03:08;98670.80;;;23.00
67501;BMP180;54349;52.528;19.760;2023-04-01T06:05:43;98670.40;;;23.00
67501;BMP180;54349;52.528;19.760;2023-04-01T06:08:16;98672.20;;;23.00
67501;BMP180;54349;52.528;19.760;2023-04-01T06:11:08;98673.00;;;23.00
67501;BMP180;54349;52.528;19.760;2023-04-01T06:17:02;98672.00;;;23.00
67501;BMP180;54349;52.528;19.760;2023-04-01T06:22:56;98679.80;;;23.10
67501;BMP180;54349;52.528;19.760;2023-04-01T06:25:41;98677.40;;;23.10
67501;BMP180;54349;52.528;19.760;2023-04-01T06:28:53;98673.80;;;23.10
67501;BMP180;54349;52.528;19.760;2023-04-01T06:31:51;98674.80;;;23.10
67501;BMP180;54349;52.528;19.760;2023-04-01T06:46:59;98687.20;;;23.20
67501;BMP180;54349;52.528;19.760;2023-04-01T06:50:16;98691.00;;;23.20
67501;BMP180;54349;52.528;19.760;2023-04-01T06:56:18;98690.80;;;23.16
67501;BMP180;54349;52.528;19.760;2023-04-01T06:59:05;98693.40;;;23.12
67501;BMP180;54349;52.528;19.760;2023-04-01T07:01:45;98694.80;;;23.10
67501;BMP180;54349;52.528;19.760;2023-04-01T07:04:34;98689.40;;;23.10
67501;BMP180;54349;52.528;19.760;2023-04-01T07:10:03;98698.20;;;23.10
67501;BMP180;54349;52.528;19.760;2023-04-01T07:12:46;98702.80;;;23.10
67501;BMP180;54349;52.528;19.760;2023-04-01T07:18:56;98703.80;;;23.10
67501;BMP180;54349;52.528;19.760;2023-04-01T07:21:41;98703.80;;;23.10
67501;BMP180;54349;52.528;19.760;2023-04-01T07:24:34;98701.00;;;23.10
67501;BMP180;54349;52.528;19.760;2023-04-01T07:27:13;98709.00;;;23.10
67501;BMP180;54349;52.528;19.760;2023-04-01T07:29:47;98709.80;;;23.10
67501;BMP180;54349;52.528;19.760;2023-04-01T07:39:18;98710.00;;;23.00
67501;BMP180;54349;52.528;19.760;2023-04-01T07:47:57;98715.40;;;22.90
67501;BMP180;54349;52.528;19.760;2023-04-01T08:09:20;98730.20;;;22.74
67501;BMP180;54349;52.528;19.760;2023-04-01T08:16:23;98735.00;;;22.72
67501;BMP180;54349;52.528;19.760;2023-04-01T08:19:19;98738.40;;;22.80
67501;BMP180;54349;52.528;19.760;2023-04-01T08:21:52;98737.60;;;22.80
67501;BMP180;54349;52.528;19.760;2023-04-01T08:24:38;98739.20;;;22.80
67501;BMP180;54349;52.528;19.760;2023-04-01T08:27:32;98744.20;;;22.80
67501;BMP180;54349;52.528;19.760;2023-04-01T08:30:32;98742.60;;;22.80
67501;BMP180;54349;52.528;19.760;2023-04-01T08:33:17;98743.60;;;22.80
67501;BMP180;54349;52.528;19.760;2023-04-01T08:36:34;98748.20;;;22.80
67501;BMP180;54349;52.528;19.760;2023-04-01T08:39:30;98744.20;;;22.78
67501;BMP180;54349;52.528;19.760;2023-04-01T08:42:41;98743.80;;;22.80
67501;BMP180;54349;52.528;19.760;2023-04-01T08:45:44;98746.80;;;22.80
67501;BMP180;54349;52.528;19.760;2023-04-01T08:55:28;98750.40;;;22.76
67501;BMP180;54349;52.528;19.760;2023-04-01T08:58:50;98752.60;;;22.70
67501;BMP180;54349;52.528;19.760;2023-04-01T09:15:01;98756.60;;;22.70
67501;BMP180;54349;52.528;19.760;2023-04-01T09:21:21;98758.60;;;22.70
67501;BMP180;54349;52.528;19.760;2023-04-01T09:27:06;98764.60;;;22.70
67501;BMP180;54349;52.528;19.760;2023-04-01T09:32:53;98769.00;;;22.70
67501;BMP180;54349;52.528;19.760;2023-04-01T09:38:28;98777.40;;;22.70
67501;BMP180;54349;52.528;19.760;2023-04-01T09:48:01;98786.00;;;22.70
67501;BMP180;54349;52.528;19.760;2023-04-01T09:54:00;98786.80;;;22.70
67501;BMP180;54349;52.528;19.760;2023-04-01T09:57:33;98785.60;;;22.70
67501;BMP180;54349;52.528;19.760;2023-04-01T10:04:02;98781.60;;;22.70
67501;BMP180;54349;52.528;19.760;2023-04-01T10:19:07;98788.60;;;22.66
67501;BMP180;54349;52.528;19.760;2023-04-01T10:28:06;98797.00;;;22.70
67501;BMP180;54349;52.528;19.760;2023-04-01T10:32:04;98797.80;;;22.70
67501;BMP180;54349;52.528;19.760;2023-04-01T10:37:34;98803.00;;;22.70
67501;BMP180;54349;52.528;19.760;2023-04-01T10:53:15;98809.40;;;22.80
67501;BMP180;54349;52.528;19.760;2023-04-01T10:56:43;98808.80;;;22.80
67501;BMP180;54349;52.528;19.760;2023-04-01T11:22:54;98828.20;;;23.20
67501;BMP180;54349;52.528;19.760;2023-04-01T11:38:22;98840.00;;;23.40
67501;BMP180;54349;52.528;19.760;2023-04-01T11:44:22;98846.60;;;23.50
67501;BMP180;54349;52.528;19.760;2023-04-01T11:48:03;98848.40;;;23.50
67501;BMP180;54349;52.528;19.760;2023-04-01T11:51:37;98848.60;;;23.50
67501;BMP180;54349;52.528;19.760;2023-04-01T12:11:12;98874.20;;;23.70
67501;BMP180;54349;52.528;19.760;2023-04-01T12:13:57;98876.00;;;23.70
67501;BMP180;54349;52.528;19.760;2023-04-01T12:17:26;98880.80;;;23.70
67501;BMP180;54349;52.528;19.760;2023-04-01T12:19:57;98882.20;;;23.78
67501;BMP180;54349;52.528;19.760;2023-04-01T12:35:24;98898.60;;;23.80
67501;BMP180;54349;52.528;19.760;2023-04-01T12:38:27;98903.20;;;23.84
67501;BMP180;54349;52.528;19.760;2023-04-01T12:41:19;98907.80;;;23.90
67501;BMP180;54349;52.528;19.760;2023-04-01T12:44:51;98913.60;;;23.90
67501;BMP180;54349;52.528;19.760;2023-04-01T13:12:24;98949.60;;;23.90
67501;BMP180;54349;52.528;19.760;2023-04-01T13:20:54;98962.60;;;23.90
67501;BMP180;54349;52.528;19.760;2023-04-01T13:32:18;98979.20;;;23.90
67501;BMP180;54349;52.528;19.760;2023-04-01T13:35:26;98982.40;;;23.90
67501;BMP180;54349;52.528;19.760;2023-04-01T13:44:35;98988.00;;;23.86
67501;BMP180;54349;52.528;19.760;2023-04-01T14:01:50;99015.20;;;23.84
67501;BMP180;54349;52.528;19.760;2023-04-01T14:13:29;99031.20;;;23.80
67501;BMP180;54349;52.528;19.760;2023-04-01T14:31:21;99067.80;;;23.68
67501;BMP180;54349;52.528;19.760;2023-04-01T14:35:19;99070.60;;;23.60
67501;BMP180;54349;52.528;19.760;2023-04-01T14:40:56;99083.00;;;23.60
67501;BMP180;54349;52.528;19.760;2023-04-01T14:49:41;99088.00;;;23.52
67501;BMP180;54349;52.528;19.760;2023-04-01T14:52:38;99093.20;;;23.50
67501;BMP180;54349;52.528;19.760;2023-04-01T14:58:19;99098.40;;;23.50
67501;BMP180;54349;52.528;19.760;2023-04-01T15:13:33;99118.80;;;23.40
67501;BMP180;54349;52.528;19.760;2023-04-01T15:25:27;99128.20;;;23.40
67501;BMP180;54349;52.528;19.760;2023-04-01T15:31:40;99138.60;;;23.40
67501;BMP180;54349;52.528;19.760;2023-04-01T15:37:39;99150.00;;;23.30
67501;BMP180;54349;52.528;19.760;2023-04-01T15:43:44;99154.60;;;23.30
67501;BMP180;54349;52.528;19.760;2023-04-01T15:46:46;99160.20;;;23.30
67501;BMP180;54349;52.528;19.760;2023-04-01T15:55:12;99174.00;;;23.30
67501;BMP180;54349;52.528;19.760;2023-04-01T16:01:13;99180.80;;;23.28
67501;BMP180;54349;52.528;19.760;2023-04-01T16:15:16;99204.60;;;23.20
67501;BMP180;54349;52.528;19.760;2023-04-01T16:21:07;99217.20;;;23.20
67501;BMP180;54349;52.528;19.760;2023-04-01T16:23:59;99217.60;;;23.20
67501;BMP180;54349;52.528;19.760;2023-04-01T16:26:42;99221.40;;;23.20
67501;BMP180;54349;52.528;19.760;2023-04-01T16:34:34;99233.40;;;23.20
67501;BMP180;54349;52.528;19.760;2023-04-01T16:37:15;99233.80;;;23.20
67501;BMP180;54349;52.528;19.760;2023-04-01T16:40:14;99236.80;;;23.18
67501;BMP180;54349;52.528;19.760;2023-04-01T16:43:04;99244.00;;;23.18
67501;BMP180;54349;52.528;19.760;2023-04-01T16:57:31;99270.80;;;23.10
67501;BMP180;54349;52.528;19.760;2023-04-01T17:03:02;99282.20;;;23.10
67501;BMP180;54349;52.528;19.760;2023-04-01T17:06:02;99286.80;;;23.10
67501;BMP180;54349;52.528;19.760;2023-04-01T17:09:13;99292.60;;;23.02
67501;BMP180;54349;52.528;19.760;2023-04-01T17:14:58;99303.20;;;23.00
67501;BMP180;54349;52.528;19.760;2023-04-01T17:17:31;99300.60;;;23.00
67501;BMP180;54349;52.528;19.760;2023-04-01T17:20:56;99308.60;;;23.00
67501;BMP180;54349;52.528;19.760;2023-04-01T17:24:03;99315.40;;;23.00
67501;BMP180;54349;52.528;19.760;2023-04-01T17:26:59;99318.00;;;23.00
67501;BMP180;54349;52.528;19.760;2023-04-01T17:36:12;99335.00;;;23.00
67501;BMP180;54349;52.528;19.760;2023-04-01T17:41:51;99346.80;;;22.90
67501;BMP180;54349;52.528;19.760;2023-04-01T17:53:51;99362.20;;;22.90
67501;BMP180;54349;52.528;19.760;2023-04-01T17:59:48;99381.40;;;22.90
67501;BMP180;54349;52.528;19.760;2023-04-01T18:11:39;99392.20;;;23.00
67501;BMP180;54349;52.528;19.760;2023-04-01T18:17:30;99401.00;;;23.00
67501;BMP180;54349;52.528;19.760;2023-04-01T18:20:51;99401.00;;;23.00
67501;BMP180;54349;52.528;19.760;2023-04-01T18:23:51;99404.60;;;23.00
67501;BMP180;54349;52.528;19.760;2023-04-01T18:26:35;99413.80;;;23.00
67501;BMP180;54349;52.528;19.760;2023-04-01T18:32:14;99423.20;;;23.00
67501;BMP180;54349;52.528;19.760;2023-04-01T18:40:42;99436.80;;;23.00
67501;BMP180;54349;52.528;19.760;2023-04-01T18:43:51;99437.80;;;23.00
67501;BMP180;54349;52.528;19.760;2023-04-01T18:52:24;99450.20;;;23.00
67501;BMP180;54349;52.528;19.760;2023-04-01T18:57:51;99455.60;;;23.00
67501;BMP180;54349;52.528;19.760;2023-04-01T19:01:23;99460.20;;;23.00
67501;BMP180;54349;52.528;19.760;2023-04-01T19:04:42;99461.00;;;23.00
67501;BMP180;54349;52.528;19.760;2023-04-01T19:07:48;99463.60;;;23.00
67501;BMP180;54349;52.528;19.760;2023-04-01T19:13:16;99473.00;;;22.98
67501;BMP180;54349;52.528;19.760;2023-04-01T19:19:21;99481.20;;;22.90
67501;BMP180;54349;52.528;19.760;2023-04-01T19:22:29;99485.00;;;22.90
67501;BMP180;54349;52.528;19.760;2023-04-01T19:25:35;99487.20;;;22.90
67501;BMP180;54349;52.528;19.760;2023-04-01T19:31:49;99495.40;;;22.90
67501;BMP180;54349;52.528;19.760;2023-04-01T19:37:54;99501.80;;;22.90
67501;BMP180;54349;52.528;19.760;2023-04-01T19:53:28;99523.20;;;22.90
67501;BMP180;54349;52.528;19.760;2023-04-01T19:56:22;99530.00;;;22.88
67501;BMP180;54349;52.528;19.760;2023-04-01T19:59:10;99533.00;;;22.88
67501;BMP180;54349;52.528;19.760;2023-04-01T20:01:52;99538.40;;;22.88
67501;BMP180;54349;52.528;19.760;2023-04-01T20:04:42;99540.80;;;22.90
67501;BMP180;54349;52.528;19.760;2023-04-01T20:07:38;99540.20;;;22.90
67501;BMP180;54349;52.528;19.760;2023-04-01T20:10:38;99541.20;;;22.90
67501;BMP180;54349;52.528;19.760;2023-04-01T20:16:48;99547.40;;;22.90
67501;BMP180;54349;52.528;19.760;2023-04-01T20:19:29;99555.00;;;22.86
67501;BMP180;54349;52.528;19.760;2023-04-01T20:22:02;99553.60;;;22.86
67501;BMP180;54349;52.528;19.760;2023-04-01T20:24:45;99561.60;;;22.84
67501;BMP180;54349;52.528;19.760;2023-04-01T20:27:21;99561.80;;;22.80
67501;BMP180;54349;52.528;19.760;2023-04-01T20:30:34;99566.80;;;22.80
67501;BMP180;54349;52.528;19.760;2023-04-01T20:36:26;99569.80;;;22.80
67501;BMP180;54349;52.528;19.760;2023-04-01T20:51:37;99583.00;;;22.80
67501;BMP180;54349;52.528;19.760;2023-04-01T20:54:22;99587.40;;;22.80
67501;BMP180;54349;52.528;19.760;2023-04-01T21:07:09;99593.00;;;22.80
67501;BMP180;54349;52.528;19.760;2023-04-01T21:16:49;99596.80;;;22.90
67501;BMP180;54349;52.528;19.760;2023-04-01T21:28:26;99611.00;;;23.00
67501;BMP180;54349;52.528;19.760;2023-04-01T22:04:11;99635.80;;;23.20
67501;BMP180;54349;52.528;19.760;2023-04-01T22:07:24;99638.40;;;23.20
67501;BMP180;54349;52.528;19.760;2023-04-01T22:15:40;99646.20;;;23.30
67501;BMP180;54349;52.528;19.760;2023-04-01T22:18:34;99652.20;;;23.30
67501;BMP180;54349;52.528;19.760;2023-04-01T22:21:21;99656.60;;;23.30
67501;BMP180;54349;52.528;19.760;2023-04-01T22:24:43;99658.00;;;23.30
67501;BMP180;54349;52.528;19.760;2023-04-01T22:26:44;99663.20;;;23.30
67501;BMP180;54349;52.528;19.760;2023-04-01T22:29:24;99664.40;;;23.32
67501;BMP180;54349;52.528;19.760;2023-04-01T22:32:26;99662.00;;;23.34
67501;BMP180;54349;52.528;19.760;2023-04-01T22:38:22;99673.60;;;23.30
67501;BMP180;54349;52.528;19.760;2023-04-01T22:43:43;99678.80;;;23.40
67501;BMP180;54349;52.528;19.760;2023-04-01T22:54:40;99685.00;;;23.40
67501;BMP180;54349;52.528;19.760;2023-04-01T22:59:58;99689.00;;;23.40
67501;BMP180;54349;52.528;19.760;2023-04-01T23:02:50;99692.00;;;23.40
67501;BMP180;54349;52.528;19.760;2023-04-01T23:05:22;99694.00;;;23.40
67501;BMP180;54349;52.528;19.760;2023-04-01T23:11:28;99695.20;;;23.50
67501;BMP180;54349;52.528;19.760;2023-04-01T23:17:24;99702.20;;;23.50
67501;BMP180;54349;52.528;19.760;2023-04-01T23:26:39;99718.40;;;23.50
67501;BMP180;54349;52.528;19.760;2023-04-01T23:29:16;99722.80;;;23.50
67501;BMP180;54349;52.528;19.760;2023-04-01T23:31:47;99722.60;;;23.50
67501;BMP180;54349;52.528;19.760;2023-04-01T23:34:25;99722.20;;;23.50
67501;BMP180;54349;52.528;19.760;2023-04-01T23:37:00;99722.00;;;23.50
67501;BMP180;54349;52.528;19.760;2023-04-01T23:39:38;99724.20;;;23.52
67501;BMP180;54349;52.528;19.760;2023-04-01T23:42:30;99727.20;;;23.60
67501;BMP180;54349;52.528;19.760;2023-04-01T23:45:16;99729.80;;;23.60
67501;BMP180;54349;52.528;19.760;2023-04-01T23:47:48;99730.80;;;23.60
67501;BMP180;54349;52.528;19.760;2023-04-01T23:50:23;99737.80;;;23.60
67501;BMP180;54349;52.528;19.760;2023-04-01T23:53:02;99742.60;;;23.60
67501;BMP180;54349;52.528;19.760;2023-04-01T23:55:33;99744.20;;;23.60
